Azuma Maru No.21 — JD3873 — position and weather

sailwx.info

Track history (hours):
 
Tides and Currents Weather Stations Pressure Air Temp Water Temp Dewpoint Dewpoint Depression Visibility Wind Speed Wind Dir Waves Ship Positions

Azuma Maru No.21

Last reported at 2017-Oct-14 13:57 UTC. Time now 2017-Oct-19 16:16 UTC.
Position N 34°54' E 139°22'.

Length 105 m; draft 6.5 m.

Type: Tanker. MMSI: 431006718.

Date/timePositionNaut miles runAvg speedWind from/ knotsBaromVisibWave heightAir tempDewpointWater temp
2017-Oct-14 13:57N 34°54' E 139°22'614.1
2017-Oct-14 13:30N 34°58' E 139°28'713.9
2017-Oct-14 13:00N 35°03' E 139°34'815.8
2017-Oct-14 12:30N 35°07' E 139°42'715.0
2017-Oct-14 12:01N 35°14' E 139°46'612.8
2017-Oct-14 11:30N 35°19' E 139°43'713.6
2017-Oct-14 11:00N 35°26' E 139°45'815.2
2017-Oct-14 10:30N 35°30' E 139°53'7 1.2
2017-Oct-14 05:07N 35°29' E 140°01'0 2.1
2017-Oct-14 04:59N 35°29' E 140°01'2 4.8
2017-Oct-14 04:29N 35°31' E 139°59'0 0.1
2017-Oct-13 22:42N 35°31' E 139°59'0 0.0
2017-Oct-13 22:21N 35°31' E 139°59'0 0.0
2017-Oct-13 21:39N 35°31' E 139°59'0 0.0
2017-Oct-13 21:30N 35°31' E 139°59'0 0.0
2017-Oct-13 20:51N 35°31' E 139°59'0 0.0
2017-Oct-13 20:30N 35°31' E 139°59'0 0.0
2017-Oct-13 20:00N 35°31' E 139°59'0 0.0
2017-Oct-13 19:27N 35°31' E 139°59'0 0.0
2017-Oct-13 19:00N 35°31' E 139°59'0 0.0
2017-Oct-13 18:24N 35°31' E 139°59'1 1.3
2017-Oct-13 18:00N 35°31' E 139°58'714.0
2017-Oct-13 17:31N 35°28' E 139°51'714.1
2017-Oct-13 17:00N 35°22' E 139°45'611.7
2017-Oct-13 16:30N 35°17' E 139°46'612.9
2017-Oct-13 16:00N 35°10' E 139°46'815.1
2017-Oct-13 15:30N 35°03' E 139°44'813.1
2017-Oct-13 14:55N 34°55' E 139°45'  
2017-Oct-10 10:34N 34°54' E 140°01'215.4
2017-Oct-10 10:28N 34°53' E 139°60'914.7
2017-Oct-10 09:50N 34°52' E 139°49'615.3
2017-Oct-10 09:27N 34°57' E 139°44'613.3
2017-Oct-10 09:00N 35°02' E 139°43'714.8
2017-Oct-10 08:30N 35°09' E 139°45'713.3
2017-Oct-10 08:00N 35°16' E 139°46'612.5
2017-Oct-10 07:31N 35°22' E 139°42'612.9
2017-Oct-10 07:00N 35°27' E 139°47'814.3
2017-Oct-10 06:28N 35°31' E 139°55'5 0.6
2017-Oct-09 22:33N 35°30' E 140°01'11 2.3
2017-Oct-09 17:55N 35°26' E 139°49'713.8
2017-Oct-09 17:24N 35°20' E 139°44'512.4
2017-Oct-09 17:00N 35°16' E 139°47'713.6
2017-Oct-09 16:30N 35°09' E 139°46'815.2
2017-Oct-09 16:00N 35°01' E 139°44'612.9
2017-Oct-09 15:30N 34°55' E 139°45'  
Track history (hours):
 
Tides and Currents Weather Stations Pressure Air Temp Water Temp Dewpoint Dewpoint Depression Visibility Wind Speed Wind Dir Waves Ship Positions

Azuma Maru No.21

Last reported at 2017-Oct-14 13:57 UTC. Time now 2017-Oct-19 16:16 UTC.
Position N 34°54' E 139°22'.

Length 105 m; draft 6.5 m.

Type: Tanker. MMSI: 431006718.

Date/timePositionNaut miles runAvg speedWind from/ knotsBaromVisibWave heightAir tempDewpointWater temp
2017-Oct-14 13:57N 34°54' E 139°22'614.1
2017-Oct-14 13:30N 34°58' E 139°28'713.9
2017-Oct-14 13:00N 35°03' E 139°34'815.8
2017-Oct-14 12:30N 35°07' E 139°42'715.0
2017-Oct-14 12:01N 35°14' E 139°46'612.8
2017-Oct-14 11:30N 35°19' E 139°43'713.6
2017-Oct-14 11:00N 35°26' E 139°45'815.2
2017-Oct-14 10:30N 35°30' E 139°53'7 1.2
2017-Oct-14 05:07N 35°29' E 140°01'0 2.1
2017-Oct-14 04:59N 35°29' E 140°01'2 4.8
2017-Oct-14 04:29N 35°31' E 139°59'0 0.1
2017-Oct-13 22:42N 35°31' E 139°59'0 0.0
2017-Oct-13 22:21N 35°31' E 139°59'0 0.0
2017-Oct-13 21:39N 35°31' E 139°59'0 0.0
2017-Oct-13 21:30N 35°31' E 139°59'0 0.0
2017-Oct-13 20:51N 35°31' E 139°59'0 0.0
2017-Oct-13 20:30N 35°31' E 139°59'0 0.0
2017-Oct-13 20:00N 35°31' E 139°59'0 0.0
2017-Oct-13 19:27N 35°31' E 139°59'0 0.0
2017-Oct-13 19:00N 35°31' E 139°59'0 0.0
2017-Oct-13 18:24N 35°31' E 139°59'1 1.3
2017-Oct-13 18:00N 35°31' E 139°58'714.0
2017-Oct-13 17:31N 35°28' E 139°51'714.1
2017-Oct-13 17:00N 35°22' E 139°45'611.7
2017-Oct-13 16:30N 35°17' E 139°46'612.9
2017-Oct-13 16:00N 35°10' E 139°46'815.1
2017-Oct-13 15:30N 35°03' E 139°44'813.1
2017-Oct-13 14:55N 34°55' E 139°45'  
2017-Oct-10 10:34N 34°54' E 140°01'215.4
2017-Oct-10 10:28N 34°53' E 139°60'914.7
2017-Oct-10 09:50N 34°52' E 139°49'615.3
2017-Oct-10 09:27N 34°57' E 139°44'613.3
2017-Oct-10 09:00N 35°02' E 139°43'714.8
2017-Oct-10 08:30N 35°09' E 139°45'713.3
2017-Oct-10 08:00N 35°16' E 139°46'612.5
2017-Oct-10 07:31N 35°22' E 139°42'612.9
2017-Oct-10 07:00N 35°27' E 139°47'814.3
2017-Oct-10 06:28N 35°31' E 139°55'5 0.6
2017-Oct-09 22:33N 35°30' E 140°01'11 2.3
2017-Oct-09 17:55N 35°26' E 139°49'713.8
2017-Oct-09 17:24N 35°20' E 139°44'512.4
2017-Oct-09 17:00N 35°16' E 139°47'713.6
2017-Oct-09 16:30N 35°09' E 139°46'815.2
2017-Oct-09 16:00N 35°01' E 139°44'612.9
2017-Oct-09 15:30N 34°55' E 139°45'  

Dump ship's entire track history